WetterOnline ( https://www.wetteronline.de )

Wetter aktuell Chemnitz

Aktuelles Wetter: Marienberg (640m)

6-stündlich | Neueste Meldungen
Ortszeit Temperatur Wetter
Di, 15.06. 2:00 13.6° C wolkig
Mo, 14.06. 20:00 20.5° C wolkenlos
Mo, 14.06. 14:00 19.9° C wolkenlos
Mo, 14.06. 8:00 12.6° C wolkenlos
Mo, 14.06. 2:00 7.3° C wolkenlos
So, 13.06. 20:00 11.9° C leicht bewölkt
So, 13.06. 14:00 11.2° C bedeckt
So, 13.06. 8:00 8.5° C bedeckt
Ortszeit Temperatur Wetter
Di, 15.06. 4:30 11.6° C wolkig
Di, 15.06. 4:20 11.6° C wolkig
Di, 15.06. 4:10 12.0° C wolkig
Di, 15.06. 4:00 12.3° C wolkig
Di, 15.06. 3:50 12.3° C wolkig
Di, 15.06. 3:40 12.4° C wolkig
Di, 15.06. 3:30 12.8° C wolkig
Di, 15.06. 3:00 13.4° C wolkig
Ortszeit Relative Feuchte Sichtweite
Di, 15.06. 2:00 72% 55 km
Mo, 14.06. 20:00 49% 60 km
Mo, 14.06. 14:00 46% 50 km
Mo, 14.06. 8:00 69% 30 km
Mo, 14.06. 2:00 88% 30 km
So, 13.06. 20:00 69% 45 km
So, 13.06. 14:00 67% 45 km
So, 13.06. 8:00 84% 30 km
Ortszeit Relative Feuchte Sichtweite
Di, 15.06. 4:30 82% 50 km
Di, 15.06. 4:20 82% -
Di, 15.06. 4:10 80% -
Di, 15.06. 4:00 79% 50 km
Di, 15.06. 3:50 79% -
Di, 15.06. 3:40 79% -
Di, 15.06. 3:30 76% 50 km
Di, 15.06. 3:00 73% 60 km
Ortszeit Niederschlagsmenge Niederschlagsart
Di, 15.06. 2:00 0.0 l/m2 in 6 Std. -
Mo, 14.06. 20:00 0.0 l/m2 in 12 Std. -
Mo, 14.06. 14:00 0.0 l/m2 in 6 Std. -
Mo, 14.06. 8:00 0.0 l/m2 in 12 Std. -
Mo, 14.06. 2:00 0.0 l/m2 in 6 Std. -
So, 13.06. 20:00 0.0 l/m2 in 12 Std. -
So, 13.06. 14:00 0.0 l/m2 in 6 Std. -
So, 13.06. 8:00 0.1 l/m2 in 12 Std. -
Ortszeit Niederschlagsmenge Niederschlagsart
Di, 15.06. 4:30 0.0 l/m2 in 1 Std. -
Di, 15.06. 4:20 keine Meldung -
Di, 15.06. 4:10 keine Meldung -
Di, 15.06. 4:00 0.0 l/m2 in 1 Std. -
Di, 15.06. 3:50 keine Meldung -
Di, 15.06. 3:40 keine Meldung -
Di, 15.06. 3:30 0.0 l/m2 in 1 Std. -
Di, 15.06. 3:00 0.0 l/m2 in 1 Std. -
Ortszeit Stärke Spitze Richtung
km/h Bft. km/h Grad Sektor
Di, 15.06. 2:00 7 2 14 210° SW
Mo, 14.06. 20:00 7 2 18 30° NO
Mo, 14.06. 14:00 7 2 14 60° NO
Mo, 14.06. 8:00 6 1 13 230° SW
Mo, 14.06. 2:00 7 2 14 250° W
So, 13.06. 20:00 6 1 33 320° NW
So, 13.06. 14:00 15 3 31 310° NW
So, 13.06. 8:00 14 3 36 310° NW
Ortszeit Stärke Spitze Richtung
km/h Bft. km/h Grad Sektor
Di, 15.06. 4:30 7 2 11 250° W
Di, 15.06. 4:20 7 2 - 250° W
Di, 15.06. 4:10 9 2 - 240° SW
Di, 15.06. 4:00 7 2 9 250° W
Di, 15.06. 3:50 7 2 - 250° W
Di, 15.06. 3:40 7 2 - 250° W
Di, 15.06. 3:30 7 2 11 260° W
Di, 15.06. 3:00 6 1 13 240° SW
Ortszeit Untergrenze Bedeckung Gattung
total tief tief mittel hoch
Di, 15.06. 2:00 9000 m 8/8 0/8 - - -
Mo, 14.06. 20:00 - 0/8 0/8 - - -
Mo, 14.06. 14:00 - 0/8 0/8 - - -
Mo, 14.06. 8:00 - 0/8 0/8 - - -
Mo, 14.06. 2:00 - 0/8 0/8 - - -
So, 13.06. 20:00 1260 m 4/8 4/8 - - -
So, 13.06. 14:00 840 m 8/8 8/8 - - -
So, 13.06. 8:00 330 m 8/8 8/8 - - -
Ortszeit Bedeckungsgrad in Achtel und Wolkenuntergrenze
Di, 15.06. 4:30 8(8700m)
Di, 15.06. 4:20 8(8700m)
Di, 15.06. 4:10 8(8700m)
Di, 15.06. 4:00 8(8400m) 8(9000m)
Di, 15.06. 3:50 8(8400m) 8(9000m)
Di, 15.06. 3:40 8(8400m)
Di, 15.06. 3:30 8(8400m) 8(10500m)
Di, 15.06. 3:00 8(8400m) 8(10500m)
Ortszeit Luftdruck NN (hPa) Tendenz (hPa in 3 Std.)
Di, 15.06. 2:00 1020 - 0,7
Mo, 14.06. 20:00 1018 - 0,7
Mo, 14.06. 14:00 1021 - 1,7
Mo, 14.06. 8:00 1025 - 0,1
Mo, 14.06. 2:00 1027 - 0,2
So, 13.06. 20:00 1026 - 0,2
So, 13.06. 14:00 1027 + 0,8
So, 13.06. 8:00 1025 + 1,4
Ortszeit Luftdruck NN (hPa) Tendenz (hPa in 3 Std.)
Di, 15.06. 4:30 1020 - 0,6
Di, 15.06. 4:20 1020 keine Meldung
Di, 15.06. 4:10 1020 keine Meldung
Di, 15.06. 4:00 1020 - 0,7
Di, 15.06. 3:50 1020 keine Meldung
Di, 15.06. 3:40 1020 keine Meldung
Di, 15.06. 3:30 1019 - 0,8
Di, 15.06. 3:00 1019 - 0,9
Ortszeit Schneehöhe (cm)
Di, 15.06. 2:00 -
Mo, 14.06. 20:00 -
Mo, 14.06. 14:00 -
Mo, 14.06. 8:00 -
Mo, 14.06. 2:00 -
So, 13.06. 20:00 -
So, 13.06. 14:00 -
So, 13.06. 8:00 -
Ortszeit Schneehöhe (cm)
Di, 15.06. 4:30 -
Di, 15.06. 4:20 -
Di, 15.06. 4:10 -
Di, 15.06. 4:00 -
Di, 15.06. 3:50 -
Di, 15.06. 3:40 -
Di, 15.06. 3:30 -
Di, 15.06. 3:00 -
Link zu dieser Seite / Seite empfehlen

Das Wetter in ...